Time;durP1;ratioP1;P1;durP2;ratioP2;P2;SDS_P1;SDS_P2;PMS_P1;PMS_P2;Temp;Humidity;BMP_temperature;BMP_pressure;BME280_temperature;BME280_humidity;BME280_pressure;Samples;Min_cycle;Max_cycle;Signal;HPM_P1;HPM_P2
2022/01/10 00:01:51;;;;;;;0.55;0.45;;;;;;;;;;4179823;28;20547;-34
2022/01/10 00:03:51;;;;;;;0.30;0.30;;;;;;;;;;4179947;28;20067;-34
2022/01/10 00:05:52;;;;;;;0.40;0.30;;;;;;;;;;4178635;28;20084;-35
2022/01/10 00:07:54;;;;;;;0.55;0.50;;;;;;;;;;4180560;28;20049;-38
2022/01/10 00:09:54;;;;;;;0.63;0.40;;;;;;;;;;4182850;28;20477;-33
2022/01/10 00:11:56;;;;;;;0.40;0.40;;;;;;;;;;4183006;28;20087;-34
2022/01/10 00:13:56;;;;;;;0.50;0.40;;;;;;;;;;4182922;28;20163;-36
2022/01/10 00:15:57;;;;;;;0.68;0.40;;;;;;;;;;4183110;28;20041;-35
2022/01/10 00:17:58;;;;;;;0.50;0.30;;;;;;;;;;4182601;28;20401;-35
2022/01/10 00:19:59;;;;;;;0.40;0.30;;;;;;;;;;4182724;28;20044;-40
2022/01/10 00:22:00;;;;;;;0.40;0.30;;;;;;;;;;4182101;28;20450;-33
2022/01/10 00:24:00;;;;;;;0.50;0.40;;;;;;;;;;4182510;28;20065;-34
2022/01/10 00:26:01;;;;;;;0.63;0.47;;;;;;;;;;4182644;28;20512;-35
2022/01/10 00:28:02;;;;;;;0.20;0.20;;;;;;;;;;4182494;28;20048;-36
2022/01/10 00:30:03;;;;;;;0.43;0.40;;;;;;;;;;4182542;28;20037;-33
2022/01/10 00:32:05;;;;;;;0.63;0.50;;;;;;;;;;4181362;28;20078;-33
2022/01/10 00:34:06;;;;;;;0.57;0.50;;;;;;;;;;4182810;28;20087;-33
2022/01/10 00:36:08;;;;;;;0.57;0.47;;;;;;;;;;4181257;28;20048;-33
2022/01/10 00:38:09;;;;;;;0.40;0.30;;;;;;;;;;4182023;28;20041;-36
2022/01/10 00:40:11;;;;;;;0.60;0.30;;;;;;;;;;4181365;28;20045;-37
2022/01/10 00:42:13;;;;;;;0.70;0.50;;;;;;;;;;4180904;28;20528;-33
2022/01/10 00:44:14;;;;;;;0.50;0.47;;;;;;;;;;4182397;28;20473;-33
2022/01/10 00:46:16;;;;;;;0.60;0.50;;;;;;;;;;4181206;28;20047;-34
2022/01/10 00:48:17;;;;;;;0.63;0.30;;;;;;;;;;4182270;28;20055;-34
2022/01/10 00:50:18;;;;;;;0.50;0.30;;;;;;;;;;4182526;28;20041;-33
2022/01/10 00:52:21;;;;;;;0.50;0.38;;;;;;;;;;4181797;28;20531;-36
2022/01/10 00:54:23;;;;;;;0.40;0.40;;;;;;;;;;4181108;28;20063;-34
2022/01/10 00:56:25;;;;;;;0.28;0.28;;;;;;;;;;4182275;28;20146;-32
2022/01/10 00:58:27;;;;;;;0.50;0.40;;;;;;;;;;4182182;28;20083;-36
2022/01/10 01:00:28;;;;;;;0.30;0.30;;;;;;;;;;4182129;28;20110;-33
2022/01/10 01:02:32;;;;;;;0.40;0.40;;;;;;;;;;4182005;28;20087;-36
2022/01/10 01:04:33;;;;;;;0.63;0.40;;;;;;;;;;4180783;28;20091;-35
2022/01/10 01:06:34;;;;;;;0.45;0.40;;;;;;;;;;4180811;28;20053;-32
2022/01/10 01:08:36;;;;;;;0.43;0.30;;;;;;;;;;4181628;28;20114;-33
2022/01/10 01:11:03;;;;;;;0.52;0.45;;;;;;;;;;4181916;28;20194;-36
2022/01/10 01:13:04;;;;;;;0.57;0.50;;;;;;;;;;4181738;28;20076;-34
2022/01/10 01:15:18;;;;;;;0.50;0.30;;;;;;;;;;4180958;28;20049;-37
2022/01/10 01:20:28;;;;;;;;;;;;;;;;;;4180070;28;20435;-38
2022/01/10 01:24:13;;;;;;;;;;;;;;;;;;4182226;28;20438;-32
2022/01/10 01:26:14;;;;;;;0.65;0.47;;;;;;;;;;4181694;28;20019;-34
2022/01/10 01:28:15;;;;;;;0.47;0.40;;;;;;;;;;4181175;28;20102;-35
2022/01/10 01:30:16;;;;;;;0.45;0.40;;;;;;;;;;4181609;28;20427;-35
2022/01/10 01:32:17;;;;;;;0.55;0.40;;;;;;;;;;4181592;28;20190;-32
2022/01/10 01:34:19;;;;;;;0.50;0.32;;;;;;;;;;4182156;28;20097;-33
2022/01/10 01:36:23;;;;;;;0.30;0.30;;;;;;;;;;4181548;28;20358;-32
2022/01/10 01:38:24;;;;;;;1.05;0.45;;;;;;;;;;4180842;28;20099;-34
2022/01/10 01:40:28;;;;;;;0.30;0.25;;;;;;;;;;4180160;28;20099;-34
2022/01/10 01:42:34;;;;;;;0.50;0.43;;;;;;;;;;4181270;28;20451;-37
2022/01/10 01:44:35;;;;;;;0.38;0.22;;;;;;;;;;4180173;28;20146;-32
2022/01/10 01:46:38;;;;;;;0.60;0.40;;;;;;;;;;4180106;28;20118;-32
2022/01/10 01:48:39;;;;;;;0.75;0.55;;;;;;;;;;4181334;28;20400;-39
2022/01/10 01:50:41;;;;;;;0.65;0.52;;;;;;;;;;4180094;28;20079;-33
2022/01/10 01:52:42;;;;;;;0.50;0.40;;;;;;;;;;4179581;28;20083;-33
2022/01/10 01:54:43;;;;;;;0.43;0.32;;;;;;;;;;4181522;28;20048;-35
2022/01/10 01:56:44;;;;;;;0.75;0.50;;;;;;;;;;4179887;28;20094;-34
2022/01/10 01:58:47;;;;;;;0.50;0.50;;;;;;;;;;4180259;28;20057;-32
2022/01/10 02:00:48;;;;;;;0.55;0.50;;;;;;;;;;4180056;28;20049;-33
2022/01/10 02:02:50;;;;;;;0.52;0.40;;;;;;;;;;4180065;28;20103;-32
2022/01/10 02:04:51;;;;;;;0.65;0.30;;;;;;;;;;4179914;28;20064;-32
2022/01/10 02:06:52;;;;;;;0.40;0.35;;;;;;;;;;4180626;28;20092;-32
2022/01/10 02:08:54;;;;;;;0.50;0.40;;;;;;;;;;4181384;28;20099;-34
2022/01/10 02:10:55;;;;;;;0.90;0.40;;;;;;;;;;4180841;28;20456;-32
2022/01/10 02:12:56;;;;;;;0.40;0.40;;;;;;;;;;4179551;28;20057;-32
2022/01/10 02:14:59;;;;;;;0.28;0.28;;;;;;;;;;4179629;28;20110;-34
2022/01/10 02:17:03;;;;;;;0.47;0.47;;;;;;;;;;4179528;28;20578;-32
2022/01/10 02:19:14;;;;;;;0.50;0.40;;;;;;;;;;4179857;28;20103;-34
2022/01/10 02:21:16;;;;;;;0.68;0.60;;;;;;;;;;4179663;28;20107;-34
2022/01/10 02:23:17;;;;;;;0.57;0.40;;;;;;;;;;4178793;28;20539;-32
2022/01/10 02:25:29;;;;;;;0.57;0.40;;;;;;;;;;4179548;28;20132;-34
2022/01/10 02:27:31;;;;;;;0.43;0.38;;;;;;;;;;4179346;28;20059;-34
2022/01/10 02:29:36;;;;;;;0.43;0.40;;;;;;;;;;4180823;28;20118;-31
2022/01/10 02:31:39;;;;;;;0.52;0.40;;;;;;;;;;4180698;28;20057;-32
2022/01/10 02:33:40;;;;;;;0.63;0.52;;;;;;;;;;4180803;28;20076;-31
2022/01/10 02:35:57;;;;;;;0.60;0.60;;;;;;;;;;4179584;28;20103;-33
2022/01/10 02:37:58;;;;;;;0.68;0.47;;;;;;;;;;4178902;28;20374;-32
2022/01/10 02:40:03;;;;;;;0.40;0.30;;;;;;;;;;4180428;28;20550;-37
2022/01/10 02:42:04;;;;;;;0.40;0.40;;;;;;;;;;4180510;28;20064;-32
2022/01/10 02:44:08;;;;;;;0.57;0.40;;;;;;;;;;4179510;28;20055;-32
2022/01/10 02:46:09;;;;;;;0.45;0.45;;;;;;;;;;4180623;28;20060;-36
2022/01/10 02:48:10;;;;;;;0.60;0.40;;;;;;;;;;4180595;28;20057;-31
2022/01/10 02:50:12;;;;;;;0.38;0.38;;;;;;;;;;4179104;28;20404;-36
2022/01/10 02:52:15;;;;;;;0.80;0.60;;;;;;;;;;4178741;28;20532;-32
2022/01/10 02:54:16;;;;;;;0.70;0.50;;;;;;;;;;4179191;28;20218;-33
2022/01/10 02:56:17;;;;;;;0.55;0.50;;;;;;;;;;4179081;28;20551;-32
2022/01/10 02:58:19;;;;;;;0.55;0.55;;;;;;;;;;4179046;28;20099;-31
2022/01/10 03:00:22;;;;;;;0.60;0.30;;;;;;;;;;4179205;28;20059;-37
2022/01/10 03:02:28;;;;;;;0.82;0.60;;;;;;;;;;4179028;28;20178;-34
2022/01/10 03:04:29;;;;;;;0.50;0.40;;;;;;;;;;4179193;28;20500;-32
2022/01/10 03:06:31;;;;;;;0.47;0.40;;;;;;;;;;4180402;28;20056;-33
2022/01/10 03:08:33;;;;;;;0.40;0.40;;;;;;;;;;4179716;28;20040;-34
2022/01/10 03:10:37;;;;;;;0.40;0.40;;;;;;;;;;4179227;28;20111;-36
2022/01/10 03:12:39;;;;;;;0.40;0.40;;;;;;;;;;4180221;28;20053;-33
2022/01/10 03:14:40;;;;;;;0.38;0.38;;;;;;;;;;4178707;28;20472;-31
2022/01/10 03:16:41;;;;;;;0.38;0.35;;;;;;;;;;4180100;28;20049;-33
2022/01/10 03:18:42;;;;;;;0.77;0.40;;;;;;;;;;4178913;28;20060;-35
2022/01/10 03:20:43;;;;;;;0.47;0.32;;;;;;;;;;4179053;28;20410;-32
2022/01/10 03:22:44;;;;;;;0.30;0.30;;;;;;;;;;4179455;28;20141;-34
2022/01/10 03:24:46;;;;;;;0.63;0.40;;;;;;;;;;4179295;28;20053;-31
2022/01/10 03:26:48;;;;;;;0.40;0.40;;;;;;;;;;4178794;28;20110;-33
2022/01/10 03:28:49;;;;;;;0.90;0.50;;;;;;;;;;4180220;28;20451;-34
2022/01/10 03:30:50;;;;;;;0.50;0.50;;;;;;;;;;4180028;28;20094;-31
2022/01/10 03:32:53;;;;;;;0.70;0.40;;;;;;;;;;4178682;28;20091;-33
2022/01/10 03:35:06;;;;;;;0.52;0.40;;;;;;;;;;4178723;28;20114;-34
2022/01/10 03:37:08;;;;;;;0.47;0.47;;;;;;;;;;4178279;28;20419;-32
2022/01/10 03:39:11;;;;;;;0.65;0.50;;;;;;;;;;4178776;28;20048;-31
2022/01/10 03:41:12;;;;;;;0.63;0.40;;;;;;;;;;4179037;28;20091;-34
2022/01/10 03:43:14;;;;;;;0.47;0.43;;;;;;;;;;4180286;28;20060;-32
2022/01/10 03:45:15;;;;;;;0.55;0.50;;;;;;;;;;4182102;28;20194;-34
2022/01/10 03:47:18;;;;;;;0.52;0.40;;;;;;;;;;4183161;28;20459;-36
2022/01/10 03:49:19;;;;;;;0.30;0.28;;;;;;;;;;4181979;28;20638;-36
2022/01/10 03:51:20;;;;;;;0.68;0.50;;;;;;;;;;4181778;28;20103;-33
2022/01/10 03:53:23;;;;;;;0.88;0.40;;;;;;;;;;4181356;28;20463;-34
2022/01/10 03:55:24;;;;;;;0.47;0.47;;;;;;;;;;4182073;28;20118;-36
2022/01/10 03:57:26;;;;;;;0.25;0.25;;;;;;;;;;4181802;28;20094;-33
2022/01/10 03:59:27;;;;;;;0.68;0.47;;;;;;;;;;4182080;28;20057;-34
2022/01/10 04:01:28;;;;;;;0.35;0.35;;;;;;;;;;4183377;28;20083;-33
2022/01/10 04:03:31;;;;;;;0.45;0.40;;;;;;;;;;4165435;28;20072;-34
2022/01/10 04:05:42;;;;;;;0.50;0.50;;;;;;;;;;4181692;28;20400;-32
2022/01/10 04:07:43;;;;;;;0.52;0.50;;;;;;;;;;4181452;28;20110;-35
2022/01/10 04:09:44;;;;;;;0.82;0.55;;;;;;;;;;4181675;28;20060;-34
2022/01/10 04:11:45;;;;;;;0.40;0.40;;;;;;;;;;4181682;28;20053;-32
2022/01/10 04:13:47;;;;;;;0.45;0.40;;;;;;;;;;4181874;28;20056;-32
2022/01/10 04:15:48;;;;;;;0.60;0.50;;;;;;;;;;4182574;28;20056;-35
2022/01/10 04:17:55;;;;;;;0.90;0.73;;;;;;;;;;4181766;28;20077;-33
2022/01/10 04:19:55;;;;;;;0.55;0.50;;;;;;;;;;4182694;28;20550;-36
2022/01/10 04:21:57;;;;;;;0.77;0.50;;;;;;;;;;4180950;28;20067;-36
2022/01/10 04:23:58;;;;;;;0.60;0.45;;;;;;;;;;4181333;28;20052;-34
2022/01/10 04:25:59;;;;;;;0.50;0.30;;;;;;;;;;4181483;28;20110;-34
2022/01/10 04:28:01;;;;;;;0.35;0.35;;;;;;;;;;4181209;28;20092;-32
2022/01/10 04:30:05;;;;;;;0.43;0.40;;;;;;;;;;4181321;28;20516;-32
2022/01/10 04:32:08;;;;;;;0.30;0.30;;;;;;;;;;4181099;28;20147;-32
2022/01/10 04:34:09;;;;;;;0.73;0.38;;;;;;;;;;4182494;28;20118;-33
2022/01/10 04:36:12;;;;;;;0.60;0.50;;;;;;;;;;4182763;28;20049;-32
2022/01/10 04:38:14;;;;;;;0.63;0.50;;;;;;;;;;4180568;28;20103;-31
2022/01/10 04:40:16;;;;;;;0.30;0.30;;;;;;;;;;4181206;28;20424;-33
2022/01/10 04:42:17;;;;;;;0.32;0.30;;;;;;;;;;4181024;28;20067;-33
2022/01/10 04:44:21;;;;;;;0.50;0.40;;;;;;;;;;4182367;28;20559;-35
2022/01/10 04:46:22;;;;;;;0.65;0.60;;;;;;;;;;4181209;28;20110;-35
2022/01/10 04:48:24;;;;;;;0.50;0.50;;;;;;;;;;4180998;28;20083;-32
2022/01/10 04:52:37;;;;;;;0.70;0.50;;;;;;;;;;4180484;28;20111;-33
2022/01/10 04:54:38;;;;;;;0.68;0.40;;;;;;;;;;4182158;28;20118;-35
2022/01/10 04:56:40;;;;;;;0.45;0.40;;;;;;;;;;4180792;28;20397;-37
2022/01/10 04:58:42;;;;;;;0.88;0.50;;;;;;;;;;4180993;28;20096;-33
2022/01/10 05:00:43;;;;;;;0.40;0.40;;;;;;;;;;4182174;28;20107;-33
2022/01/10 05:02:46;;;;;;;0.70;0.60;;;;;;;;;;4180688;28;20497;-33
2022/01/10 05:04:47;;;;;;;0.80;0.57;;;;;;;;;;4181013;28;20063;-36
2022/01/10 05:06:48;;;;;;;1.13;0.65;;;;;;;;;;4181774;28;20202;-32
2022/01/10 05:08:50;;;;;;;0.50;0.50;;;;;;;;;;4180855;28;20083;-34
2022/01/10 05:11:02;;;;;;;0.80;0.60;;;;;;;;;;4180735;28;20061;-34
2022/01/10 05:13:03;;;;;;;0.70;0.57;;;;;;;;;;4180569;28;20056;-33
2022/01/10 05:15:04;;;;;;;1.20;0.80;;;;;;;;;;4180594;28;20075;-33
2022/01/10 05:17:06;;;;;;;0.82;0.60;;;;;;;;;;4180740;28;20102;-33
2022/01/10 05:19:08;;;;;;;0.88;0.70;;;;;;;;;;4180444;28;20059;-35
2022/01/10 05:21:10;;;;;;;0.80;0.60;;;;;;;;;;4164141;28;20100;-34
2022/01/10 05:23:11;;;;;;;0.80;0.57;;;;;;;;;;4179783;28;20572;-31
2022/01/10 05:25:14;;;;;;;0.63;0.60;;;;;;;;;;4180707;28;20078;-32
2022/01/10 05:27:18;;;;;;;0.90;0.77;;;;;;;;;;4181806;28;20075;-31
2022/01/10 05:29:21;;;;;;;0.85;0.70;;;;;;;;;;4180756;28;20115;-32
2022/01/10 05:31:22;;;;;;;0.70;0.57;;;;;;;;;;4180298;28;20551;-37
2022/01/10 05:33:39;;;;;;;1.08;0.75;;;;;;;;;;4180549;28;20083;-36
2022/01/10 05:35:40;;;;;;;1.35;0.80;;;;;;;;;;4180416;28;20056;-34
2022/01/10 05:37:42;;;;;;;1.15;0.95;;;;;;;;;;4181023;28;20044;-31
2022/01/10 05:39:43;;;;;;;1.48;1.20;;;;;;;;;;4181663;28;20056;-32
2022/01/10 05:41:44;;;;;;;1.30;0.98;;;;;;;;;;4181377;28;20052;-35
2022/01/10 05:43:46;;;;;;;0.88;0.77;;;;;;;;;;4180151;28;20432;-34
2022/01/10 05:45:48;;;;;;;1.20;1.00;;;;;;;;;;4180056;28;20487;-31
2022/01/10 05:47:51;;;;;;;1.48;0.90;;;;;;;;;;4180198;28;20147;-34
2022/01/10 05:50:00;;;;;;;2.85;0.80;;;;;;;;;;4180111;28;20053;-33
2022/01/10 05:52:02;;;;;;;1.17;0.80;;;;;;;;;;4179500;28;20118;-34
2022/01/10 05:54:09;;;;;;;2.30;0.85;;;;;;;;;;4181666;28;20098;-33
2022/01/10 05:56:10;;;;;;;1.38;1.05;;;;;;;;;;4181356;28;20335;-35
2022/01/10 05:58:28;;;;;;;1.33;0.82;;;;;;;;;;4180025;28;20059;-34
2022/01/10 06:00:29;;;;;;;1.83;0.90;;;;;;;;;;4179819;28;20079;-33
2022/01/10 06:02:30;;;;;;;1.10;0.98;;;;;;;;;;4180931;28;20049;-34
2022/01/10 06:04:31;;;;;;;1.00;0.90;;;;;;;;;;4180124;28;20130;-33
2022/01/10 06:06:39;;;;;;;0.98;0.70;;;;;;;;;;4179199;28;20512;-35
2022/01/10 06:08:40;;;;;;;1.40;1.00;;;;;;;;;;4179749;28;20079;-34
2022/01/10 06:10:42;;;;;;;1.80;1.15;;;;;;;;;;4179677;28;20491;-35
2022/01/10 06:12:57;;;;;;;1.10;1.00;;;;;;;;;;4179622;28;20056;-36
2022/01/10 06:14:58;;;;;;;1.13;0.90;;;;;;;;;;4181004;28;20523;-33
2022/01/10 06:16:59;;;;;;;1.25;0.80;;;;;;;;;;4179418;28;20091;-33
2022/01/10 06:19:00;;;;;;;1.13;0.88;;;;;;;;;;4180975;28;20052;-32
2022/01/10 06:21:02;;;;;;;1.17;1.00;;;;;;;;;;4179738;28;20175;-33
2022/01/10 06:23:03;;;;;;;1.60;1.10;;;;;;;;;;4178852;28;20182;-33
2022/01/10 06:25:05;;;;;;;1.23;0.77;;;;;;;;;;4180791;28;20067;-32
2022/01/10 06:27:06;;;;;;;1.48;1.10;;;;;;;;;;4179392;28;20103;-35
2022/01/10 06:29:09;;;;;;;1.65;1.20;;;;;;;;;;4179488;28;20064;-35
2022/01/10 06:31:10;;;;;;;0.80;0.80;;;;;;;;;;4178928;28;20444;-34
2022/01/10 06:33:20;;;;;;;1.33;1.00;;;;;;;;;;4179330;28;20098;-34
2022/01/10 06:35:21;;;;;;;1.00;0.90;;;;;;;;;;4180575;28;20111;-33
2022/01/10 06:37:25;;;;;;;1.23;1.00;;;;;;;;;;4179085;28;20128;-33
2022/01/10 06:39:27;;;;;;;1.23;1.13;;;;;;;;;;4179493;28;20075;-33
2022/01/10 06:41:28;;;;;;;1.52;1.23;;;;;;;;;;4180569;28;20118;-34
2022/01/10 06:43:29;;;;;;;1.48;1.05;;;;;;;;;;4179378;28;20082;-32
2022/01/10 06:45:31;;;;;;;0.98;0.90;;;;;;;;;;4179356;28;20057;-32
2022/01/10 06:47:32;;;;;;;1.20;0.85;;;;;;;;;;4179331;28;20057;-34
2022/01/10 06:49:34;;;;;;;1.17;1.00;;;;;;;;;;4179449;28;20083;-35
2022/01/10 06:51:35;;;;;;;1.02;0.85;;;;;;;;;;4180195;28;20057;-37
2022/01/10 06:53:36;;;;;;;1.60;1.17;;;;;;;;;;4178099;28;20408;-32
2022/01/10 06:55:39;;;;;;;0.85;0.80;;;;;;;;;;4189912;28;20573;-34
2022/01/10 06:57:41;;;;;;;1.10;0.95;;;;;;;;;;4195786;28;20051;-36
2022/01/10 06:59:43;;;;;;;1.60;1.17;;;;;;;;;;4188381;28;20082;-33
2022/01/10 07:01:45;;;;;;;1.33;1.17;;;;;;;;;;4163646;28;20107;-33
2022/01/10 07:03:46;;;;;;;1.40;1.10;;;;;;;;;;4202773;28;20576;-34
2022/01/10 07:05:53;;;;;;;1.70;1.10;;;;;;;;;;4183536;28;20060;-34
2022/01/10 07:07:55;;;;;;;1.60;1.20;;;;;;;;;;4189005;28;20048;-36
2022/01/10 07:10:08;;;;;;;1.25;1.10;;;;;;;;;;4187808;28;20454;-34
2022/01/10 07:12:09;;;;;;;1.98;1.33;;;;;;;;;;4169107;28;20126;-34
2022/01/10 07:14:33;;;;;;;2.05;1.30;;;;;;;;;;4179466;28;20100;-33
2022/01/10 07:16:34;;;;;;;1.45;1.27;;;;;;;;;;4178501;28;20481;-34
2022/01/10 07:18:39;;;;;;;1.27;1.08;;;;;;;;;;4195258;28;20048;-37
2022/01/10 07:20:48;;;;;;;1.42;1.13;;;;;;;;;;4195286;28;20106;-35
2022/01/10 07:22:51;;;;;;;1.10;1.00;;;;;;;;;;4180362;28;20071;-35
2022/01/10 07:24:52;;;;;;;1.73;1.25;;;;;;;;;;4187707;28;20061;-37
2022/01/10 07:26:53;;;;;;;1.77;1.45;;;;;;;;;;4188629;28;20558;-34
2022/01/10 07:28:54;;;;;;;1.88;1.40;;;;;;;;;;4194498;28;20090;-35
2022/01/10 07:30:55;;;;;;;1.80;1.40;;;;;;;;;;4198553;28;20106;-36
2022/01/10 07:32:56;;;;;;;1.75;1.23;;;;;;;;;;4191249;28;20094;-34
2022/01/10 07:34:57;;;;;;;2.05;1.30;;;;;;;;;;4189638;28;20056;-37
2022/01/10 07:36:58;;;;;;;1.20;0.98;;;;;;;;;;4192352;28;20090;-33
2022/01/10 07:39:00;;;;;;;2.33;1.27;;;;;;;;;;4192572;28;20770;-34
2022/01/10 07:41:05;;;;;;;1.48;1.30;;;;;;;;;;4182909;28;20148;-33
2022/01/10 07:43:06;;;;;;;1.42;1.10;;;;;;;;;;4195119;28;20123;-34
2022/01/10 07:45:25;;;;;;;1.40;1.30;;;;;;;;;;4183778;28;20090;-34
2022/01/10 07:47:28;;;;;;;1.90;1.08;;;;;;;;;;4192565;28;20103;-35
2022/01/10 07:49:30;;;;;;;1.67;1.13;;;;;;;;;;4185566;28;20079;-36
2022/01/10 07:51:31;;;;;;;1.50;1.25;;;;;;;;;;4185098;28;20064;-34
2022/01/10 07:53:32;;;;;;;1.30;1.20;;;;;;;;;;4187241;28;20071;-35
2022/01/10 07:55:33;;;;;;;1.88;1.40;;;;;;;;;;4191330;28;20045;-35
2022/01/10 07:57:34;;;;;;;1.40;1.27;;;;;;;;;;4194671;28;20052;-34
2022/01/10 07:59:35;;;;;;;1.58;1.13;;;;;;;;;;4191981;28;20417;-35
2022/01/10 08:01:38;;;;;;;1.80;1.50;;;;;;;;;;4195223;28;20087;-34
2022/01/10 08:03:39;;;;;;;1.35;1.17;;;;;;;;;;4184380;28;20107;-35
2022/01/10 08:05:40;;;;;;;1.83;1.35;;;;;;;;;;4186454;28;20110;-38
2022/01/10 08:07:41;;;;;;;1.80;1.45;;;;;;;;;;4189563;28;20072;-39
2022/01/10 08:09:42;;;;;;;1.48;1.20;;;;;;;;;;4188623;28;20118;-34
2022/01/10 08:11:43;;;;;;;2.25;1.45;;;;;;;;;;4183593;28;20109;-36
2022/01/10 08:13:44;;;;;;;2.10;1.40;;;;;;;;;;4189317;28;20446;-35
2022/01/10 08:15:46;;;;;;;0.88;0.82;;;;;;;;;;4188442;28;20098;-33
2022/01/10 08:17:47;;;;;;;2.38;1.48;;;;;;;;;;4184944;28;20400;-33
2022/01/10 08:19:48;;;;;;;1.23;1.00;;;;;;;;;;4188505;28;20107;-34
2022/01/10 08:21:49;;;;;;;1.30;1.00;;;;;;;;;;4191074;28;20052;-32
2022/01/10 08:23:50;;;;;;;1.58;1.40;;;;;;;;;;4191202;28;20501;-34
2022/01/10 08:25:51;;;;;;;1.52;1.20;;;;;;;;;;4189964;28;20056;-32
2022/01/10 08:27:52;;;;;;;2.13;1.50;;;;;;;;;;4193611;28;20072;-33
2022/01/10 08:29:53;;;;;;;1.70;1.38;;;;;;;;;;4187760;28;20053;-34
2022/01/10 08:31:54;;;;;;;2.58;1.40;;;;;;;;;;4185022;28;20131;-38
2022/01/10 08:33:54;;;;;;;1.90;1.30;;;;;;;;;;4190856;28;20450;-32
2022/01/10 08:35:55;;;;;;;1.38;1.08;;;;;;;;;;4188008;28;20080;-36
2022/01/10 08:37:57;;;;;;;1.20;1.10;;;;;;;;;;4184212;28;20044;-34
2022/01/10 08:39:58;;;;;;;1.95;1.27;;;;;;;;;;4188693;28;20174;-34
2022/01/10 08:41:59;;;;;;;1.20;1.00;;;;;;;;;;4188766;28;20049;-32
2022/01/10 08:44:00;;;;;;;2.50;1.30;;;;;;;;;;4190267;28;20070;-34
2022/01/10 08:46:02;;;;;;;1.67;1.20;;;;;;;;;;4187834;28;20076;-33
2022/01/10 08:48:04;;;;;;;1.50;1.25;;;;;;;;;;4186108;28;20100;-36
2022/01/10 08:50:06;;;;;;;2.17;1.50;;;;;;;;;;4190912;28;20052;-34
2022/01/10 08:52:08;;;;;;;1.10;1.00;;;;;;;;;;4184309;28;20194;-42
2022/01/10 08:54:10;;;;;;;1.40;1.10;;;;;;;;;;4188659;28;20481;-36
2022/01/10 08:56:11;;;;;;;1.67;1.48;;;;;;;;;;4179737;28;20049;-33
2022/01/10 08:58:12;;;;;;;2.05;1.30;;;;;;;;;;4185502;28;20228;-36
2022/01/10 09:00:13;;;;;;;1.40;1.30;;;;;;;;;;4185147;28;20411;-36
2022/01/10 09:02:14;;;;;;;1.38;1.10;;;;;;;;;;4190162;28;20053;-36
2022/01/10 09:04:16;;;;;;;1.42;1.30;;;;;;;;;;4188716;28;20082;-34
2022/01/10 09:06:17;;;;;;;1.33;1.10;;;;;;;;;;4182811;28;20143;-35
2022/01/10 09:08:18;;;;;;;2.25;1.55;;;;;;;;;;4185317;28;20048;-34
2022/01/10 09:10:19;;;;;;;2.30;1.48;;;;;;;;;;4190854;28;20538;-32
2022/01/10 09:12:20;;;;;;;1.98;1.02;;;;;;;;;;4185548;28;20144;-35
2022/01/10 09:14:22;;;;;;;1.48;1.27;;;;;;;;;;4184969;28;20119;-34
2022/01/10 09:16:23;;;;;;;2.05;1.38;;;;;;;;;;4188502;28;20052;-33
2022/01/10 09:18:24;;;;;;;1.65;1.13;;;;;;;;;;4190423;28;20432;-32
2022/01/10 09:20:25;;;;;;;1.80;1.52;;;;;;;;;;4183516;28;20044;-33
2022/01/10 09:22:26;;;;;;;1.73;1.45;;;;;;;;;;4185060;28;20055;-32
2022/01/10 09:24:27;;;;;;;1.98;1.45;;;;;;;;;;4191808;28;20052;-32
2022/01/10 09:26:28;;;;;;;1.40;1.30;;;;;;;;;;4185232;28;20444;-35
2022/01/10 09:28:29;;;;;;;1.63;1.33;;;;;;;;;;4183525;28;20114;-33
2022/01/10 09:30:30;;;;;;;1.75;1.23;;;;;;;;;;4185271;28;20086;-32
2022/01/10 09:32:31;;;;;;;1.77;1.27;;;;;;;;;;4186702;28;20489;-36
2022/01/10 09:34:32;;;;;;;1.35;1.10;;;;;;;;;;4185608;28;21424;-31
2022/01/10 09:36:34;;;;;;;2.08;1.33;;;;;;;;;;4186775;28;20093;-33
2022/01/10 09:38:35;;;;;;;2.38;1.58;;;;;;;;;;4190719;28;20053;-34
2022/01/10 09:40:36;;;;;;;2.10;1.10;;;;;;;;;;4184892;28;20102;-33
2022/01/10 09:42:38;;;;;;;2.15;1.70;;;;;;;;;;4186845;28;20060;-36
2022/01/10 09:44:39;;;;;;;1.65;1.55;;;;;;;;;;4187235;28;20056;-35
2022/01/10 09:46:40;;;;;;;1.25;1.10;;;;;;;;;;4180396;28;20067;-33
2022/01/10 09:48:41;;;;;;;1.30;1.20;;;;;;;;;;4185958;28;20037;-34
2022/01/10 09:50:43;;;;;;;2.00;1.50;;;;;;;;;;4183468;28;20139;-33
2022/01/10 09:52:47;;;;;;;1.77;1.38;;;;;;;;;;4185768;28;20044;-35
2022/01/10 09:54:50;;;;;;;1.83;1.30;;;;;;;;;;4185440;28;20093;-32
2022/01/10 09:56:51;;;;;;;2.13;1.40;;;;;;;;;;4182130;28;20044;-34
2022/01/10 09:58:53;;;;;;;1.88;1.40;;;;;;;;;;4189534;28;20060;-33
2022/01/10 10:00:58;;;;;;;1.35;1.23;;;;;;;;;;4186020;28;20057;-39
2022/01/10 10:02:59;;;;;;;1.52;1.08;;;;;;;;;;4187170;28;20048;-36
2022/01/10 10:05:03;;;;;;;1.92;1.50;;;;;;;;;;4188881;28;20052;-33
2022/01/10 10:07:05;;;;;;;2.05;1.38;;;;;;;;;;4187224;28;20460;-32
2022/01/10 10:09:08;;;;;;;2.55;1.30;;;;;;;;;;4188179;28;20056;-34
2022/01/10 10:11:09;;;;;;;1.83;1.30;;;;;;;;;;4187077;28;20064;-38
2022/01/10 10:13:13;;;;;;;3.90;1.50;;;;;;;;;;4185716;28;20099;-33
2022/01/10 10:15:16;;;;;;;2.85;1.30;;;;;;;;;;4179082;28;20044;-37
2022/01/10 10:17:18;;;;;;;2.08;1.40;;;;;;;;;;4182882;28;20041;-34
2022/01/10 10:19:24;;;;;;;1.38;1.15;;;;;;;;;;4184432;28;20056;-36
2022/01/10 10:21:24;;;;;;;2.30;1.42;;;;;;;;;;4184961;28;20048;-36
2022/01/10 10:23:30;;;;;;;1.77;1.15;;;;;;;;;;4188922;28;20105;-41
2022/01/10 10:25:33;;;;;;;2.55;1.58;;;;;;;;;;4188243;28;20056;-35
2022/01/10 10:27:35;;;;;;;1.33;1.23;;;;;;;;;;4187718;28;20041;-34
2022/01/10 10:29:37;;;;;;;1.77;1.10;;;;;;;;;;4184342;28;20060;-34
2022/01/10 10:31:44;;;;;;;1.90;1.40;;;;;;;;;;4181147;28;20052;-32
2022/01/10 10:33:46;;;;;;;1.38;1.20;;;;;;;;;;4183490;28;20053;-33
2022/01/10 10:35:55;;;;;;;3.00;1.63;;;;;;;;;;4185843;28;20045;-33
2022/01/10 10:37:56;;;;;;;3.17;1.20;;;;;;;;;;4182309;28;20049;-38
2022/01/10 10:39:57;;;;;;;1.30;1.10;;;;;;;;;;4172703;28;20129;-35
2022/01/10 10:41:59;;;;;;;1.48;1.10;;;;;;;;;;4179097;28;20155;-34
2022/01/10 10:44:00;;;;;;;1.83;1.30;;;;;;;;;;4187603;28;20101;-35
2022/01/10 10:46:03;;;;;;;2.08;1.50;;;;;;;;;;4184291;28;20101;-35
2022/01/10 10:48:08;;;;;;;1.65;1.45;;;;;;;;;;4184985;28;20056;-37
2022/01/10 10:50:10;;;;;;;1.55;1.20;;;;;;;;;;4184842;28;20450;-36
2022/01/10 10:52:12;;;;;;;2.08;1.45;;;;;;;;;;4182219;28;20079;-34
2022/01/10 10:54:14;;;;;;;1.63;1.52;;;;;;;;;;4186048;28;20044;-34
2022/01/10 10:56:15;;;;;;;2.05;1.55;;;;;;;;;;4187178;28;20056;-36
2022/01/10 10:58:16;;;;;;;1.45;1.10;;;;;;;;;;4186155;28;20052;-35
2022/01/10 11:00:17;;;;;;;2.03;1.45;;;;;;;;;;4190741;28;20135;-33
2022/01/10 11:02:21;;;;;;;1.60;1.45;;;;;;;;;;4185874;28;20119;-37
2022/01/10 11:04:22;;;;;;;1.88;1.40;;;;;;;;;;4180228;28;20045;-39
2022/01/10 11:06:23;;;;;;;1.65;1.30;;;;;;;;;;4181246;28;20063;-37
2022/01/10 11:08:28;;;;;;;2.05;1.10;;;;;;;;;;4180557;28;20111;-35
2022/01/10 11:10:29;;;;;;;1.83;1.40;;;;;;;;;;4179855;28;20057;-35
2022/01/10 11:12:33;;;;;;;1.70;1.15;;;;;;;;;;4182629;28;20045;-32
2022/01/10 11:14:34;;;;;;;2.13;1.25;;;;;;;;;;4184599;28;20048;-33
2022/01/10 11:16:36;;;;;;;1.80;1.42;;;;;;;;;;4187601;28;20207;-33
2022/01/10 11:18:37;;;;;;;2.80;1.63;;;;;;;;;;4184115;28;20476;-35
2022/01/10 11:20:45;;;;;;;1.38;1.27;;;;;;;;;;4183794;28;20078;-35
2022/01/10 11:22:47;;;;;;;1.33;1.20;;;;;;;;;;4178540;28;20064;-36
2022/01/10 11:24:52;;;;;;;1.80;1.45;;;;;;;;;;4180702;28;20060;-34
2022/01/10 11:26:53;;;;;;;1.90;1.50;;;;;;;;;;4183432;28;20103;-34
2022/01/10 11:28:55;;;;;;;2.90;1.38;;;;;;;;;;4178408;28;20500;-35
2022/01/10 11:31:00;;;;;;;1.35;1.05;;;;;;;;;;4179421;28;20041;-38
2022/01/10 11:33:03;;;;;;;2.92;1.30;;;;;;;;;;4178544;28;20049;-34
2022/01/10 11:35:07;;;;;;;1.73;1.35;;;;;;;;;;4183516;28;20048;-33
2022/01/10 11:37:09;;;;;;;1.73;1.33;;;;;;;;;;4178369;28;20052;-35
2022/01/10 11:39:11;;;;;;;1.73;1.30;;;;;;;;;;4179185;28;20041;-36
2022/01/10 11:41:13;;;;;;;2.80;1.63;;;;;;;;;;4180620;28;20095;-35
2022/01/10 11:43:26;;;;;;;1.48;1.30;;;;;;;;;;4180228;28;20104;-33
2022/01/10 11:45:27;;;;;;;1.55;1.40;;;;;;;;;;4175220;28;20061;-37
2022/01/10 11:47:28;;;;;;;1.88;1.40;;;;;;;;;;4182305;28;20154;-36
2022/01/10 11:49:30;;;;;;;1.25;1.10;;;;;;;;;;4178493;28;20099;-33
2022/01/10 11:51:34;;;;;;;1.67;1.27;;;;;;;;;;4181784;28;20048;-38
2022/01/10 11:53:35;;;;;;;1.55;1.17;;;;;;;;;;4184680;28;20119;-32
2022/01/10 11:55:55;;;;;;;1.92;1.48;;;;;;;;;;4177180;28;20581;-31
2022/01/10 11:58:13;;;;;;;1.98;1.60;;;;;;;;;;4176625;28;20044;-40
2022/01/10 12:00:15;;;;;;;1.38;1.13;;;;;;;;;;4186808;28;20403;-35
2022/01/10 12:02:17;;;;;;;1.52;1.30;;;;;;;;;;4180743;28;20052;-35
2022/01/10 12:04:19;;;;;;;1.73;1.30;;;;;;;;;;4178826;28;20048;-35
2022/01/10 12:06:20;;;;;;;1.30;1.20;;;;;;;;;;4182007;28;20052;-33
2022/01/10 12:08:21;;;;;;;1.52;1.10;;;;;;;;;;4185254;28;20089;-33
2022/01/10 12:10:22;;;;;;;1.83;1.33;;;;;;;;;;4183460;28;20087;-34
2022/01/10 12:12:29;;;;;;;2.38;1.52;;;;;;;;;;4183552;28;20460;-36
2022/01/10 12:14:30;;;;;;;1.27;1.17;;;;;;;;;;4184575;28;20404;-36
2022/01/10 12:16:32;;;;;;;1.40;1.30;;;;;;;;;;4183374;28;20551;-37
2022/01/10 12:18:33;;;;;;;1.40;1.30;;;;;;;;;;4184038;28;20044;-39
2022/01/10 12:20:35;;;;;;;1.48;1.20;;;;;;;;;;4186960;28;20037;-33
2022/01/10 12:22:36;;;;;;;1.58;1.38;;;;;;;;;;4183775;28;20413;-38